2009/3/6 金曜日

九州遠征

今、羽田のANAラウンジにいます。
これからANA241(B772/JA8968)で最後の「はやぶさ」「富士」を撮りに九州に向います。

RJFF 052130Z 30004KT 4000 SHRA BR FEW005 SCT010 BKN015 13/12 Q1009
RJFT 052132Z VRB01KT 2500 SHRA BR PRFG FEW003 BKN005 BKN007 13/12 Q1009 RMK 1ST003 5ST005 7ST007 A2980 FG S-W

福岡も熊本も天気悪いです。予報は悪くない(といっても晴れではありませんが。)ので何とかなるでしょう。

それにしても久しぶりの飛行機だなぁ〜。

Tag:

  • 羽田のBizJet
  • スタアラジャンボ
  • 羽田Nエリア
  • レトロ塗装
  • B737が主役
  • 久しぶりの城南島
  • 羽田でジャンボ
  • 3年半ぶりの羽田(ANA編)
  • 3年半ぶりの羽田(JAL編)
  • 航空連合
  • 今日も羽田へ。
  • 羽田でジャンボ
  • 羽田の国際線
  • 久しぶりの羽田
  • 新聞記者にもマニアがいますね。
  • いよいよ聖火がやって来ます。
  • 着陸復航
  • 花火大会。
  • 羽田に戻って来ました。
  • Filed under: Diary — ◇敏郎◇ @ 6:57:39

    コメント (0) »

    この記事にはまだコメントがついていません。

    コメント RSS トラックバック URL

    コメントをどうぞ

    HTML convert time: 0.250 sec. Powered by WordPress ME